LGTSLGMK

Guest
Details From LGTS - Thessalonik Makedonia
To LGMK - Mikonos
Flight Number -
Tags generated
Created
Modified
Stats Distance 218 nm / 404 km
Max Altitude 27,100 ft / 8,260 m
Waypoints 4
Social Downloads 2
Likes 0
Share VATSIM

Download

Looking for another format? Having issues loading an existing format? Contact us
Advertisement - Login to hide

Notes

Basic altitude profile: - Ascent Rate: 3000ft/min - Ascent Speed: 290kts - Cruise Altitude: 27000ft - Cruise Speed: 440kts - Descent Rate: 2000ft/min - Descent Speed: 280kts Options: - Use NATs: yes - Use PACOTS: yes - Use low airways: no - Use high airways: yes

Route

LGTS PELAS UZ507 KERES LGMK

ID Type Via Altitude Latitude Longitude Leg Dist Tot Dist Heading (true) Name
O LGTS APT - 0 ft / 0 m 40.51952˚ 22.97202˚ - 0 nm - Thessalonik Makedonia
PELAS FIX - 27,100 ft / 8,260 m 39.30000˚ 23.99167˚ 87 nm 87 nm 147° / 148° -
KERES FIX UZ507 (AWY-HI) 23,500 ft / 7,163 m 38.97722˚ 24.49222˚ 30 nm 117 nm 130° / 130° -
O LGMK APT - 0 ft / 0 m 37.43539˚ 25.34814˚ 101 nm 218 nm 156° / 157° Mikonos

Altitude Profile

Advertisement - Login to hide

Weather


0- 5 10 15 20 25 30 35+ Temperature / ° C

Clouds and Precipitation
Forecast for 2017-12-12 00:00 UTC. Updated 6 minutes ago

Ground ~20,000 ft ~40,000 ft Winds

LGTS

Details ICAO LGTS (SKG)
Name Thessalonik Makedonia
Region Greece
Timezone Europe/Athens (UTC+2.0)
Stats Elevation 22 ft / 7 m (AMSL)
Location 40.519522° 22.972017°
Runways 2
Magnetic Variation 4.622° E

METAR

LGTS 111850Z VRB02KT CAVOK 05/M01 Q1022 NOSIG

Decode

TAF

TAF LGTS 111700Z 1118/1218 VRB03KT CAVOK BECMG 1201/1203 5000 BR SCT008 PROB40 TEMPO 1203/1207 0800 FG BKN005 BECMG 1207/1209 9999 FEW030

Decode

Departure Runways

ID Width Length Bearing (true) Bearing (mag) Surface Threshold Offset Overrun Length
10 164 ft / 50 m 7,990 ft / 2,435 m 103.95° 99.33° Asphalt 0 ft / 0 m 150 ft / 46 m
16 197 ft / 60 m 7,927 ft / 2,416 m 166.35° 161.73° Asphalt 0 ft / 0 m 200 ft / 61 m
28 164 ft / 50 m 7,990 ft / 2,435 m 283.97° 279.35° Asphalt 0 ft / 0 m 150 ft / 46 m
34 197 ft / 60 m 7,927 ft / 2,416 m 346.36° 341.74° Asphalt 0 ft / 0 m 200 ft / 61 m

LGMK

Details ICAO LGMK (JMK)
Name Mikonos
Region Greece
Timezone Europe/Athens (UTC+2.0)
Stats Elevation 405 ft / 123 m (AMSL)
Location 37.435385° 25.348138°
Runways 1
Magnetic Variation 4.600° E

METAR

LGMK 111750Z 17007KT 9999 FEW018 14/10 Q1023

Decode

TAF

Not found

Destination Runways

ID Width Length Bearing (true) Bearing (mag) Surface Threshold Offset Overrun Length
16 98 ft / 30 m 6,423 ft / 1,958 m 160.63° 156.03° Asphalt 0 ft / 0 m 200 ft / 61 m
34 98 ft / 30 m 6,423 ft / 1,958 m 340.63° 336.03° Asphalt 0 ft / 0 m 200 ft / 61 m

Popular Alternatives